sensor_id;sensor_type;location;lat;lon;timestamp;pressure;altitude;pressure_sealevel;temperature;humidity
12785;BME280;6456;42.680;23.260;2023-03-04T00:00:01;94710.28;;;7.07;100.00
12785;BME280;6456;42.680;23.260;2023-03-04T00:02:32;94650.53;;;6.62;100.00
12785;BME280;6456;42.680;23.260;2023-03-04T00:04:59;94652.97;;;6.63;100.00
12785;BME280;6456;42.680;23.260;2023-03-04T00:07:28;94702.31;;;6.94;100.00
12785;BME280;6456;42.680;23.260;2023-03-04T00:09:54;94707.53;;;6.94;100.00
12785;BME280;6456;42.680;23.260;2023-03-04T00:12:21;94531.47;;;5.74;100.00
12785;BME280;6456;42.680;23.260;2023-03-04T00:14:48;94683.66;;;6.76;100.00
12785;BME280;6456;42.680;23.260;2023-03-04T00:17:15;94655.69;;;6.55;100.00
12785;BME280;6456;42.680;23.260;2023-03-04T00:19:44;94633.84;;;6.41;100.00
12785;BME280;6456;42.680;23.260;2023-03-04T00:22:11;94696.28;;;6.72;100.00
12785;BME280;6456;42.680;23.260;2023-03-04T00:24:37;94591.50;;;5.89;100.00
12785;BME280;6456;42.680;23.260;2023-03-04T00:27:04;94608.91;;;6.18;100.00
12785;BME280;6456;42.680;23.260;2023-03-04T00:29:31;94596.00;;;5.95;100.00
12785;BME280;6456;42.680;23.260;2023-03-04T00:31:58;94602.09;;;6.02;100.00
12785;BME280;6456;42.680;23.260;2023-03-04T00:34:25;94645.38;;;6.26;100.00
12785;BME280;6456;42.680;23.260;2023-03-04T00:36:53;94618.03;;;6.07;100.00
12785;BME280;6456;42.680;23.260;2023-03-04T00:39:25;94602.84;;;5.96;100.00
12785;BME280;6456;42.680;23.260;2023-03-04T00:41:52;94654.75;;;6.41;100.00
12785;BME280;6456;42.680;23.260;2023-03-04T00:44:19;94574.41;;;5.87;100.00
12785;BME280;6456;42.680;23.260;2023-03-04T00:46:46;94599.44;;;6.17;100.00
12785;BME280;6456;42.680;23.260;2023-03-04T00:49:13;94687.22;;;6.68;100.00
12785;BME280;6456;42.680;23.260;2023-03-04T00:51:40;94629.25;;;6.43;100.00
12785;BME280;6456;42.680;23.260;2023-03-04T00:54:08;94597.44;;;6.19;100.00
12785;BME280;6456;42.680;23.260;2023-03-04T00:56:36;94616.00;;;6.45;100.00
12785;BME280;6456;42.680;23.260;2023-03-04T00:59:02;94680.78;;;6.92;100.00
12785;BME280;6456;42.680;23.260;2023-03-04T01:01:29;94601.31;;;6.44;100.00
12785;BME280;6456;42.680;23.260;2023-03-04T01:03:56;94661.06;;;6.68;100.00
12785;BME280;6456;42.680;23.260;2023-03-04T01:06:26;94518.38;;;5.89;100.00
12785;BME280;6456;42.680;23.260;2023-03-04T01:08:53;94683.00;;;6.95;100.00
12785;BME280;6456;42.680;23.260;2023-03-04T01:11:21;94561.25;;;6.16;100.00
12785;BME280;6456;42.680;23.260;2023-03-04T01:13:48;94624.13;;;6.57;100.00
12785;BME280;6456;42.680;23.260;2023-03-04T01:16:15;94675.00;;;6.75;100.00
12785;BME280;6456;42.680;23.260;2023-03-04T01:18:42;94654.78;;;6.63;100.00
12785;BME280;6456;42.680;23.260;2023-03-04T01:21:17;94610.31;;;6.41;100.00
12785;BME280;6456;42.680;23.260;2023-03-04T01:23:44;94593.91;;;6.26;100.00
12785;BME280;6456;42.680;23.260;2023-03-04T01:26:11;94669.44;;;6.85;100.00
12785;BME280;6456;42.680;23.260;2023-03-04T01:28:39;94642.16;;;6.66;100.00
12785;BME280;6456;42.680;23.260;2023-03-04T01:31:06;94655.50;;;6.78;100.00
12785;BME280;6456;42.680;23.260;2023-03-04T01:33:32;94669.28;;;6.86;100.00
12785;BME280;6456;42.680;23.260;2023-03-04T01:35:59;94668.47;;;6.86;100.00
12785;BME280;6456;42.680;23.260;2023-03-04T01:38:28;94655.38;;;6.86;100.00
12785;BME280;6456;42.680;23.260;2023-03-04T01:40:55;94549.13;;;6.08;100.00
12785;BME280;6456;42.680;23.260;2023-03-04T01:43:27;94662.38;;;6.79;100.00
12785;BME280;6456;42.680;23.260;2023-03-04T01:45:56;94597.34;;;6.48;100.00
12785;BME280;6456;42.680;23.260;2023-03-04T01:48:25;94618.66;;;6.52;100.00
12785;BME280;6456;42.680;23.260;2023-03-04T01:50:52;94633.91;;;6.69;100.00
12785;BME280;6456;42.680;23.260;2023-03-04T01:53:23;94654.41;;;6.66;100.00
12785;BME280;6456;42.680;23.260;2023-03-04T01:55:51;94638.47;;;6.61;100.00
12785;BME280;6456;42.680;23.260;2023-03-04T01:58:19;94643.69;;;6.61;100.00
12785;BME280;6456;42.680;23.260;2023-03-04T02:00:46;94576.75;;;6.17;100.00
12785;BME280;6456;42.680;23.260;2023-03-04T02:03:16;94473.34;;;5.45;100.00
12785;BME280;6456;42.680;23.260;2023-03-04T02:05:48;94468.47;;;5.42;100.00
12785;BME280;6456;42.680;23.260;2023-03-04T02:08:17;94643.81;;;6.53;100.00
12785;BME280;6456;42.680;23.260;2023-03-04T02:10:45;94642.44;;;6.57;100.00
12785;BME280;6456;42.680;23.260;2023-03-04T02:13:13;94642.88;;;6.60;100.00
12785;BME280;6456;42.680;23.260;2023-03-04T02:15:41;94626.13;;;6.55;100.00
12785;BME280;6456;42.680;23.260;2023-03-04T02:18:15;94625.88;;;6.50;100.00
12785;BME280;6456;42.680;23.260;2023-03-04T02:20:50;94523.44;;;5.91;100.00
12785;BME280;6456;42.680;23.260;2023-03-04T02:23:24;94620.75;;;6.56;100.00
12785;BME280;6456;42.680;23.260;2023-03-04T02:26:04;94636.84;;;6.60;100.00
12785;BME280;6456;42.680;23.260;2023-03-04T02:28:33;94632.63;;;6.59;100.00
12785;BME280;6456;42.680;23.260;2023-03-04T02:31:00;94625.06;;;6.49;100.00
12785;BME280;6456;42.680;23.260;2023-03-04T02:33:29;94609.97;;;6.44;100.00
12785;BME280;6456;42.680;23.260;2023-03-04T02:35:58;94626.75;;;6.57;100.00
12785;BME280;6456;42.680;23.260;2023-03-04T02:38:25;94613.19;;;6.46;100.00
12785;BME280;6456;42.680;23.260;2023-03-04T02:40:53;94476.91;;;5.58;100.00
12785;BME280;6456;42.680;23.260;2023-03-04T02:43:23;94460.19;;;5.53;100.00
12785;BME280;6456;42.680;23.260;2023-03-04T02:45:50;94629.13;;;6.52;100.00
12785;BME280;6456;42.680;23.260;2023-03-04T02:48:19;94539.94;;;5.91;100.00
12785;BME280;6456;42.680;23.260;2023-03-04T02:50:48;94460.91;;;5.47;100.00
12785;BME280;6456;42.680;23.260;2023-03-04T02:53:15;94617.75;;;6.38;100.00
12785;BME280;6456;42.680;23.260;2023-03-04T02:55:43;94603.97;;;6.29;100.00
12785;BME280;6456;42.680;23.260;2023-03-04T02:58:11;94617.03;;;6.29;100.00
12785;BME280;6456;42.680;23.260;2023-03-04T03:00:40;94574.50;;;5.93;100.00
12785;BME280;6456;42.680;23.260;2023-03-04T03:03:07;94553.22;;;5.81;100.00
12785;BME280;6456;42.680;23.260;2023-03-04T03:05:34;94584.53;;;6.11;100.00
12785;BME280;6456;42.680;23.260;2023-03-04T03:08:02;94613.81;;;6.27;100.00
12785;BME280;6456;42.680;23.260;2023-03-04T03:10:29;94548.22;;;5.80;100.00
12785;BME280;6456;42.680;23.260;2023-03-04T03:12:56;94482.28;;;5.36;100.00
12785;BME280;6456;42.680;23.260;2023-03-04T03:15:23;94619.97;;;6.20;100.00
12785;BME280;6456;42.680;23.260;2023-03-04T03:17:52;94583.25;;;6.07;100.00
12785;BME280;6456;42.680;23.260;2023-03-04T03:20:19;94571.13;;;5.99;100.00
12785;BME280;6456;42.680;23.260;2023-03-04T03:22:46;94559.75;;;5.86;100.00
12785;BME280;6456;42.680;23.260;2023-03-04T03:25:15;94613.50;;;6.16;100.00
12785;BME280;6456;42.680;23.260;2023-03-04T03:27:42;94616.75;;;6.18;100.00
12785;BME280;6456;42.680;23.260;2023-03-04T03:30:12;94584.84;;;6.01;100.00
12785;BME280;6456;42.680;23.260;2023-03-04T03:32:39;94561.72;;;5.83;100.00
12785;BME280;6456;42.680;23.260;2023-03-04T03:35:07;94596.56;;;6.12;100.00
12785;BME280;6456;42.680;23.260;2023-03-04T03:37:34;94605.03;;;6.14;100.00
12785;BME280;6456;42.680;23.260;2023-03-04T03:40:01;94561.94;;;5.67;100.00
12785;BME280;6456;42.680;23.260;2023-03-04T03:42:28;94467.22;;;5.02;100.00
12785;BME280;6456;42.680;23.260;2023-03-04T03:44:55;94609.44;;;5.92;100.00
12785;BME280;6456;42.680;23.260;2023-03-04T03:47:22;94547.63;;;5.49;100.00
12785;BME280;6456;42.680;23.260;2023-03-04T03:49:49;94539.94;;;5.41;100.00
12785;BME280;6456;42.680;23.260;2023-03-04T03:52:17;94598.72;;;5.87;100.00
12785;BME280;6456;42.680;23.260;2023-03-04T03:54:44;94564.63;;;5.59;100.00
12785;BME280;6456;42.680;23.260;2023-03-04T03:57:11;94455.47;;;4.91;100.00
12785;BME280;6456;42.680;23.260;2023-03-04T03:59:38;94604.19;;;5.92;100.00
12785;BME280;6456;42.680;23.260;2023-03-04T04:02:05;94546.09;;;5.54;100.00
12785;BME280;6456;42.680;23.260;2023-03-04T04:04:32;94612.50;;;5.96;100.00
12785;BME280;6456;42.680;23.260;2023-03-04T04:06:58;94602.41;;;5.93;100.00
12785;BME280;6456;42.680;23.260;2023-03-04T04:09:27;94569.28;;;5.78;100.00
12785;BME280;6456;42.680;23.260;2023-03-04T04:11:54;94537.59;;;5.46;100.00
12785;BME280;6456;42.680;23.260;2023-03-04T04:14:20;94600.78;;;5.92;100.00
12785;BME280;6456;42.680;23.260;2023-03-04T04:16:47;94588.72;;;5.91;100.00
12785;BME280;6456;42.680;23.260;2023-03-04T04:19:18;94588.91;;;5.89;100.00
12785;BME280;6456;42.680;23.260;2023-03-04T04:21:46;94592.06;;;5.85;100.00
12785;BME280;6456;42.680;23.260;2023-03-04T04:24:13;94571.56;;;5.67;100.00
12785;BME280;6456;42.680;23.260;2023-03-04T04:26:49;94591.72;;;5.73;100.00
12785;BME280;6456;42.680;23.260;2023-03-04T04:29:16;94593.31;;;5.74;100.00
12785;BME280;6456;42.680;23.260;2023-03-04T04:31:43;94536.06;;;5.37;100.00
12785;BME280;6456;42.680;23.260;2023-03-04T04:34:10;94555.84;;;5.46;100.00
12785;BME280;6456;42.680;23.260;2023-03-04T04:36:37;94537.06;;;5.36;100.00
12785;BME280;6456;42.680;23.260;2023-03-04T04:39:03;94596.84;;;5.66;100.00
12785;BME280;6456;42.680;23.260;2023-03-04T04:41:35;94495.91;;;5.02;100.00
12785;BME280;6456;42.680;23.260;2023-03-04T04:44:04;94515.97;;;5.16;100.00
12785;BME280;6456;42.680;23.260;2023-03-04T04:46:31;94519.34;;;5.16;100.00
12785;BME280;6456;42.680;23.260;2023-03-04T04:48:58;94466.72;;;4.77;100.00
12785;BME280;6456;42.680;23.260;2023-03-04T04:51:25;94587.78;;;5.48;100.00
12785;BME280;6456;42.680;23.260;2023-03-04T04:53:53;94533.22;;;5.02;100.00
12785;BME280;6456;42.680;23.260;2023-03-04T04:56:21;94520.91;;;4.96;100.00
12785;BME280;6456;42.680;23.260;2023-03-04T04:58:49;94521.63;;;4.90;100.00
12785;BME280;6456;42.680;23.260;2023-03-04T05:01:17;94551.66;;;4.86;100.00
12785;BME280;6456;42.680;23.260;2023-03-04T05:03:44;94565.22;;;4.82;100.00
12785;BME280;6456;42.680;23.260;2023-03-04T05:06:11;94580.88;;;4.82;100.00
12785;BME280;6456;42.680;23.260;2023-03-04T05:08:38;94519.53;;;4.42;100.00
12785;BME280;6456;42.680;23.260;2023-03-04T05:11:06;94579.50;;;4.71;100.00
12785;BME280;6456;42.680;23.260;2023-03-04T05:13:33;94532.66;;;4.48;100.00
12785;BME280;6456;42.680;23.260;2023-03-04T05:16:01;94618.94;;;5.05;100.00
12785;BME280;6456;42.680;23.260;2023-03-04T05:18:30;94595.88;;;4.94;100.00
12785;BME280;6456;42.680;23.260;2023-03-04T05:20:58;94624.31;;;5.18;100.00
12785;BME280;6456;42.680;23.260;2023-03-04T05:23:27;94452.41;;;4.15;100.00
12785;BME280;6456;42.680;23.260;2023-03-04T05:25:54;94621.97;;;5.24;100.00
12785;BME280;6456;42.680;23.260;2023-03-04T05:28:22;94594.03;;;5.03;100.00
12785;BME280;6456;42.680;23.260;2023-03-04T05:30:49;94637.75;;;5.30;100.00
12785;BME280;6456;42.680;23.260;2023-03-04T05:33:17;94524.88;;;4.63;100.00
12785;BME280;6456;42.680;23.260;2023-03-04T05:35:46;94483.97;;;4.49;100.00
12785;BME280;6456;42.680;23.260;2023-03-04T05:38:15;94462.41;;;4.40;100.00
12785;BME280;6456;42.680;23.260;2023-03-04T05:40:43;94572.69;;;5.14;100.00
12785;BME280;6456;42.680;23.260;2023-03-04T05:43:10;94609.03;;;5.45;100.00
12785;BME280;6456;42.680;23.260;2023-03-04T05:45:37;94640.16;;;5.61;100.00
12785;BME280;6456;42.680;23.260;2023-03-04T05:48:05;94636.09;;;5.73;100.00
12785;BME280;6456;42.680;23.260;2023-03-04T05:50:33;94546.53;;;5.22;100.00
12785;BME280;6456;42.680;23.260;2023-03-04T05:53:01;94639.59;;;5.80;100.00
12785;BME280;6456;42.680;23.260;2023-03-04T05:55:28;94556.06;;;5.30;100.00
12785;BME280;6456;42.680;23.260;2023-03-04T05:57:55;94642.81;;;5.97;100.00
12785;BME280;6456;42.680;23.260;2023-03-04T06:00:22;94563.03;;;5.44;100.00
12785;BME280;6456;42.680;23.260;2023-03-04T06:02:49;94572.91;;;5.63;100.00
12785;BME280;6456;42.680;23.260;2023-03-04T06:05:17;94648.09;;;6.18;100.00
12785;BME280;6456;42.680;23.260;2023-03-04T06:07:44;94660.41;;;6.24;100.00
12785;BME280;6456;42.680;23.260;2023-03-04T06:10:14;94634.31;;;6.09;100.00
12785;BME280;6456;42.680;23.260;2023-03-04T06:12:41;94644.03;;;6.15;100.00
12785;BME280;6456;42.680;23.260;2023-03-04T06:15:09;94603.91;;;6.02;100.00
12785;BME280;6456;42.680;23.260;2023-03-04T06:17:37;94656.03;;;6.45;100.00
12785;BME280;6456;42.680;23.260;2023-03-04T06:20:05;94583.19;;;6.00;100.00
12785;BME280;6456;42.680;23.260;2023-03-04T06:22:32;94580.28;;;6.10;100.00
12785;BME280;6456;42.680;23.260;2023-03-04T06:24:59;94641.41;;;6.51;100.00
12785;BME280;6456;42.680;23.260;2023-03-04T06:27:27;94644.50;;;6.61;100.00
12785;BME280;6456;42.680;23.260;2023-03-04T06:29:54;94666.59;;;6.80;100.00
12785;BME280;6456;42.680;23.260;2023-03-04T06:32:21;94668.00;;;7.03;100.00
12785;BME280;6456;42.680;23.260;2023-03-04T06:34:48;94637.94;;;6.93;100.00
12785;BME280;6456;42.680;23.260;2023-03-04T06:37:15;94592.50;;;6.73;100.00
12785;BME280;6456;42.680;23.260;2023-03-04T06:39:43;94583.69;;;6.74;100.00
12785;BME280;6456;42.680;23.260;2023-03-04T06:42:10;94591.56;;;6.80;100.00
12785;BME280;6456;42.680;23.260;2023-03-04T06:44:39;94616.94;;;7.14;100.00
12785;BME280;6456;42.680;23.260;2023-03-04T06:47:07;94613.56;;;7.20;100.00
12785;BME280;6456;42.680;23.260;2023-03-04T06:49:34;94638.63;;;7.36;100.00
12785;BME280;6456;42.680;23.260;2023-03-04T06:52:01;94616.31;;;7.12;100.00
12785;BME280;6456;42.680;23.260;2023-03-04T06:54:29;94610.72;;;7.15;100.00
12785;BME280;6456;42.680;23.260;2023-03-04T06:56:56;94674.28;;;7.71;100.00
12785;BME280;6456;42.680;23.260;2023-03-04T06:59:23;94634.28;;;7.49;100.00
12785;BME280;6456;42.680;23.260;2023-03-04T07:01:51;94624.34;;;7.38;100.00
12785;BME280;6456;42.680;23.260;2023-03-04T07:04:18;94681.13;;;7.72;100.00
12785;BME280;6456;42.680;23.260;2023-03-04T07:06:47;94624.13;;;7.33;100.00
12785;BME280;6456;42.680;23.260;2023-03-04T07:09:14;94623.75;;;7.36;100.00
12785;BME280;6456;42.680;23.260;2023-03-04T07:11:41;94677.09;;;7.69;100.00
12785;BME280;6456;42.680;23.260;2023-03-04T07:14:08;94686.19;;;7.73;100.00
12785;BME280;6456;42.680;23.260;2023-03-04T07:16:35;94578.63;;;7.00;100.00
12785;BME280;6456;42.680;23.260;2023-03-04T07:19:04;94586.81;;;7.25;100.00
12785;BME280;6456;42.680;23.260;2023-03-04T07:21:31;94684.81;;;7.84;100.00
12785;BME280;6456;42.680;23.260;2023-03-04T07:23:57;94633.81;;;7.39;100.00
12785;BME280;6456;42.680;23.260;2023-03-04T07:26:24;94701.59;;;7.55;100.00
12785;BME280;6456;42.680;23.260;2023-03-04T07:28:51;94687.50;;;7.56;100.00
12785;BME280;6456;42.680;23.260;2023-03-04T07:31:21;94537.34;;;6.68;100.00
12785;BME280;6456;42.680;23.260;2023-03-04T07:33:48;94680.50;;;7.63;100.00
12785;BME280;6456;42.680;23.260;2023-03-04T07:36:17;94685.16;;;7.74;100.00
12785;BME280;6456;42.680;23.260;2023-03-04T07:38:45;94552.19;;;6.88;100.00
12785;BME280;6456;42.680;23.260;2023-03-04T07:41:12;94681.34;;;7.70;100.00
12785;BME280;6456;42.680;23.260;2023-03-04T07:43:39;94675.03;;;7.58;100.00
12785;BME280;6456;42.680;23.260;2023-03-04T07:46:06;94643.66;;;7.37;100.00
12785;BME280;6456;42.680;23.260;2023-03-04T07:48:33;94574.47;;;7.12;100.00
12785;BME280;6456;42.680;23.260;2023-03-04T07:51:08;94569.84;;;7.14;100.00
12785;BME280;6456;42.680;23.260;2023-03-04T07:53:39;94525.59;;;6.85;100.00
12785;BME280;6456;42.680;23.260;2023-03-04T07:56:07;94668.69;;;7.81;100.00
12785;BME280;6456;42.680;23.260;2023-03-04T07:58:36;94623.88;;;7.62;100.00
12785;BME280;6456;42.680;23.260;2023-03-04T08:01:08;94680.22;;;7.86;100.00
12785;BME280;6456;42.680;23.260;2023-03-04T08:03:34;94614.63;;;7.32;100.00
12785;BME280;6456;42.680;23.260;2023-03-04T08:06:03;94617.25;;;7.32;100.00
12785;BME280;6456;42.680;23.260;2023-03-04T08:08:30;94677.88;;;7.63;100.00
12785;BME280;6456;42.680;23.260;2023-03-04T08:10:59;94659.69;;;7.55;100.00
12785;BME280;6456;42.680;23.260;2023-03-04T08:13:25;94553.91;;;6.75;100.00
12785;BME280;6456;42.680;23.260;2023-03-04T08:15:54;94601.00;;;7.09;100.00
12785;BME280;6456;42.680;23.260;2023-03-04T08:18:21;94671.28;;;7.74;100.00
12785;BME280;6456;42.680;23.260;2023-03-04T08:20:48;94669.41;;;7.61;100.00
12785;BME280;6456;42.680;23.260;2023-03-04T08:23:15;94577.78;;;6.93;100.00
12785;BME280;6456;42.680;23.260;2023-03-04T08:25:42;94686.84;;;7.48;100.00
12785;BME280;6456;42.680;23.260;2023-03-04T08:28:10;94631.81;;;7.41;100.00
12785;BME280;6456;42.680;23.260;2023-03-04T08:30:38;94678.56;;;7.79;100.00
12785;BME280;6456;42.680;23.260;2023-03-04T08:33:05;94510.28;;;6.82;100.00
12785;BME280;6456;42.680;23.260;2023-03-04T08:35:35;94587.59;;;7.19;100.00
12785;BME280;6456;42.680;23.260;2023-03-04T08:38:02;94669.28;;;7.76;100.00
12785;BME280;6456;42.680;23.260;2023-03-04T08:40:29;94681.13;;;7.72;100.00
12785;BME280;6456;42.680;23.260;2023-03-04T08:42:55;94670.28;;;7.82;100.00
12785;BME280;6456;42.680;23.260;2023-03-04T08:45:24;94650.13;;;7.69;100.00
12785;BME280;6456;42.680;23.260;2023-03-04T08:47:51;94565.72;;;7.33;100.00
12785;BME280;6456;42.680;23.260;2023-03-04T08:50:18;94663.22;;;8.23;100.00
12785;BME280;6456;42.680;23.260;2023-03-04T08:52:46;94660.72;;;8.49;100.00
12785;BME280;6456;42.680;23.260;2023-03-04T08:55:13;94561.78;;;8.04;100.00
12785;BME280;6456;42.680;23.260;2023-03-04T08:57:43;94605.66;;;8.49;100.00
12785;BME280;6456;42.680;23.260;2023-03-04T09:00:11;94668.63;;;8.95;100.00
12785;BME280;6456;42.680;23.260;2023-03-04T09:02:39;94513.00;;;8.16;100.00
12785;BME280;6456;42.680;23.260;2023-03-04T09:05:07;94664.41;;;9.20;100.00
12785;BME280;6456;42.680;23.260;2023-03-04T09:07:34;94550.38;;;8.70;98.10
12785;BME280;6456;42.680;23.260;2023-03-04T09:10:01;94648.78;;;9.58;95.19
12785;BME280;6456;42.680;23.260;2023-03-04T09:12:28;94664.69;;;9.89;94.16
12785;BME280;6456;42.680;23.260;2023-03-04T09:14:55;94660.88;;;9.79;94.77
12785;BME280;6456;42.680;23.260;2023-03-04T09:17:22;94648.97;;;9.76;93.40
12785;BME280;6456;42.680;23.260;2023-03-04T09:19:50;94575.53;;;9.37;93.08
12785;BME280;6456;42.680;23.260;2023-03-04T09:22:17;94596.84;;;9.60;92.96
12785;BME280;6456;42.680;23.260;2023-03-04T09:24:44;94568.56;;;9.62;92.49
12785;BME280;6456;42.680;23.260;2023-03-04T09:27:11;94595.56;;;9.82;92.44
12785;BME280;6456;42.680;23.260;2023-03-04T09:29:38;94545.00;;;9.36;92.23
12785;BME280;6456;42.680;23.260;2023-03-04T09:32:05;94539.94;;;9.41;92.19
12785;BME280;6456;42.680;23.260;2023-03-04T09:34:32;94655.50;;;10.24;91.07
12785;BME280;6456;42.680;23.260;2023-03-04T09:37:00;94553.84;;;9.48;92.09
12785;BME280;6456;42.680;23.260;2023-03-04T09:39:27;94518.81;;;9.10;93.05
12785;BME280;6456;42.680;23.260;2023-03-04T09:41:57;94649.66;;;10.09;92.85
12785;BME280;6456;42.680;23.260;2023-03-04T09:44:27;94591.53;;;9.80;92.20
12785;BME280;6456;42.680;23.260;2023-03-04T09:47:00;94503.88;;;9.17;91.98
12785;BME280;6456;42.680;23.260;2023-03-04T09:49:29;94621.53;;;10.16;91.02
12785;BME280;6456;42.680;23.260;2023-03-04T09:52:03;94553.91;;;9.86;90.65
12785;BME280;6456;42.680;23.260;2023-03-04T09:54:52;94638.72;;;10.57;89.18
12785;BME280;6456;42.680;23.260;2023-03-04T09:57:27;94519.44;;;9.69;89.06
12785;BME280;6456;42.680;23.260;2023-03-04T10:00:03;94545.53;;;9.64;89.87
12785;BME280;6456;42.680;23.260;2023-03-04T10:02:40;94653.38;;;10.40;89.71
12785;BME280;6456;42.680;23.260;2023-03-04T10:05:12;94556.63;;;10.17;87.84
12785;BME280;6456;42.680;23.260;2023-03-04T10:07:45;94612.75;;;10.67;87.19
12785;BME280;6456;42.680;23.260;2023-03-04T10:10:17;94567.41;;;10.65;87.15
12785;BME280;6456;42.680;23.260;2023-03-04T10:12:45;94616.00;;;11.18;87.31
12785;BME280;6456;42.680;23.260;2023-03-04T10:15:22;94613.69;;;11.28;87.65
12785;BME280;6456;42.680;23.260;2023-03-04T10:17:55;94582.59;;;10.94;88.29
12785;BME280;6456;42.680;23.260;2023-03-04T10:20:30;94605.03;;;10.97;88.62
12785;BME280;6456;42.680;23.260;2023-03-04T10:23:08;94596.75;;;10.93;88.77
12785;BME280;6456;42.680;23.260;2023-03-04T10:25:38;94553.91;;;10.61;89.28
12785;BME280;6456;42.680;23.260;2023-03-04T10:28:11;94593.22;;;11.06;88.14
12785;BME280;6456;42.680;23.260;2023-03-04T10:30:47;94558.94;;;10.63;88.48
12785;BME280;6456;42.680;23.260;2023-03-04T10:33:17;94564.78;;;10.65;88.38
12785;BME280;6456;42.680;23.260;2023-03-04T10:35:47;94555.63;;;10.74;87.11
12785;BME280;6456;42.680;23.260;2023-03-04T10:38:20;94463.41;;;10.38;87.36
12785;BME280;6456;42.680;23.260;2023-03-04T10:40:47;94589.44;;;10.95;89.21
12785;BME280;6456;42.680;23.260;2023-03-04T10:43:16;94575.81;;;10.80;88.47
12785;BME280;6456;42.680;23.260;2023-03-04T10:45:43;94551.59;;;10.71;89.86
12785;BME280;6456;42.680;23.260;2023-03-04T10:48:18;94510.00;;;10.30;89.37
12785;BME280;6456;42.680;23.260;2023-03-04T10:50:46;94515.28;;;10.55;89.87
12785;BME280;6456;42.680;23.260;2023-03-04T10:53:24;94477.09;;;10.21;90.25
12785;BME280;6456;42.680;23.260;2023-03-04T10:55:53;94561.38;;;10.64;91.21
12785;BME280;6456;42.680;23.260;2023-03-04T10:58:20;94529.41;;;10.61;89.97
12785;BME280;6456;42.680;23.260;2023-03-04T11:00:58;94551.09;;;10.81;89.79
12785;BME280;6456;42.680;23.260;2023-03-04T11:03:30;94543.63;;;10.78;89.92
12785;BME280;6456;42.680;23.260;2023-03-04T11:06:14;94552.16;;;10.98;89.90
12785;BME280;6456;42.680;23.260;2023-03-04T11:08:43;94458.75;;;10.40;89.25
12785;BME280;6456;42.680;23.260;2023-03-04T11:11:23;94464.94;;;10.52;88.66
12785;BME280;6456;42.680;23.260;2023-03-04T11:13:52;94535.50;;;11.04;89.09
12785;BME280;6456;42.680;23.260;2023-03-04T11:16:27;94508.69;;;10.71;90.57
12785;BME280;6456;42.680;23.260;2023-03-04T11:19:01;94537.56;;;11.02;89.28
12785;BME280;6456;42.680;23.260;2023-03-04T11:21:34;94366.09;;;9.88;89.44
12785;BME280;6456;42.680;23.260;2023-03-04T11:24:07;94523.06;;;10.93;89.76
12785;BME280;6456;42.680;23.260;2023-03-04T11:26:39;94492.06;;;10.70;89.01
12785;BME280;6456;42.680;23.260;2023-03-04T11:29:13;94491.56;;;10.62;89.92
12785;BME280;6456;42.680;23.260;2023-03-04T11:31:46;94513.13;;;10.70;92.09
12785;BME280;6456;42.680;23.260;2023-03-04T11:34:19;94396.66;;;10.07;92.07
12785;BME280;6456;42.680;23.260;2023-03-04T11:36:53;94496.94;;;10.91;90.96
12785;BME280;6456;42.680;23.260;2023-03-04T11:39:30;94428.88;;;10.52;91.13
12785;BME280;6456;42.680;23.260;2023-03-04T11:42:03;94457.38;;;10.80;90.27
12785;BME280;6456;42.680;23.260;2023-03-04T11:44:30;94477.88;;;10.96;91.43
12785;BME280;6456;42.680;23.260;2023-03-04T11:47:06;94436.00;;;10.52;89.72
12785;BME280;6456;42.680;23.260;2023-03-04T11:49:51;94501.63;;;10.89;90.16
12785;BME280;6456;42.680;23.260;2023-03-04T11:52:28;94464.31;;;10.74;90.81
12785;BME280;6456;42.680;23.260;2023-03-04T11:55:15;94465.22;;;10.86;89.71
12785;BME280;6456;42.680;23.260;2023-03-04T11:57:54;94439.97;;;10.79;90.56
12785;BME280;6456;42.680;23.260;2023-03-04T12:00:37;94399.63;;;10.67;89.12
12785;BME280;6456;42.680;23.260;2023-03-04T12:03:39;94470.72;;;11.39;88.18
12785;BME280;6456;42.680;23.260;2023-03-04T12:06:17;94398.88;;;11.14;87.38
12785;BME280;6456;42.680;23.260;2023-03-04T12:09:02;94411.53;;;11.06;87.84
12785;BME280;6456;42.680;23.260;2023-03-04T12:11:39;94478.53;;;11.28;87.40
12785;BME280;6456;42.680;23.260;2023-03-04T12:14:26;94441.50;;;11.23;86.28
12785;BME280;6456;42.680;23.260;2023-03-04T12:17:10;94417.38;;;11.26;85.64
12785;BME280;6456;42.680;23.260;2023-03-04T12:20:16;94425.50;;;11.24;87.14
12785;BME280;6456;42.680;23.260;2023-03-04T12:22:51;94431.47;;;11.49;85.33
12785;BME280;6456;42.680;23.260;2023-03-04T12:25:35;94358.81;;;11.12;84.96
12785;BME280;6456;42.680;23.260;2023-03-04T12:28:21;94370.38;;;11.41;84.55
12785;BME280;6456;42.680;23.260;2023-03-04T12:31:07;94351.84;;;11.47;83.77
12785;BME280;6456;42.680;23.260;2023-03-04T12:33:47;94350.72;;;11.55;83.42
12785;BME280;6456;42.680;23.260;2023-03-04T12:36:23;94316.19;;;11.45;83.05
12785;BME280;6456;42.680;23.260;2023-03-04T12:39:07;94337.28;;;11.45;83.21
12785;BME280;6456;42.680;23.260;2023-03-04T12:41:44;94292.44;;;11.22;82.68
12785;BME280;6456;42.680;23.260;2023-03-04T12:44:16;94324.47;;;11.48;82.79
12785;BME280;6456;42.680;23.260;2023-03-04T12:47:00;94367.31;;;11.74;82.85
12785;BME280;6456;42.680;23.260;2023-03-04T12:49:54;94370.31;;;11.77;82.60
12785;BME280;6456;42.680;23.260;2023-03-04T12:52:31;94362.91;;;11.68;82.44
12785;BME280;6456;42.680;23.260;2023-03-04T12:55:02;94425.00;;;11.82;83.85
12785;BME280;6456;42.680;23.260;2023-03-04T12:57:30;94418.88;;;11.70;84.53
12785;BME280;6456;42.680;23.260;2023-03-04T13:00:17;94352.47;;;11.31;83.54
12785;BME280;6456;42.680;23.260;2023-03-04T13:06:06;94414.25;;;11.95;82.17
12785;BME280;6456;42.680;23.260;2023-03-04T13:08:46;94332.38;;;11.48;82.14
12785;BME280;6456;42.680;23.260;2023-03-04T13:11:53;94400.16;;;12.01;82.93
12785;BME280;6456;42.680;23.260;2023-03-04T13:14:24;94370.97;;;11.73;82.84
12785;BME280;6456;42.680;23.260;2023-03-04T13:16:55;94334.25;;;11.59;83.19